createdAt,value
2023-04-24T00:02:28.505Z,5.25
2023-04-24T00:05:18.340Z,6.47
2023-04-24T00:08:03.773Z,4.97
2023-04-24T00:10:49.287Z,5.85
2023-04-24T00:13:34.384Z,5.72
2023-04-24T00:16:20.053Z,5.50
2023-04-24T00:19:06.957Z,5.22
2023-04-24T00:21:52.484Z,5.57
2023-04-24T00:24:37.759Z,5.90
2023-04-24T00:27:23.133Z,5.93
2023-04-24T00:30:09.069Z,5.78
2023-04-24T00:32:54.460Z,5.43
2023-04-24T00:35:39.774Z,4.78
2023-04-24T00:38:25.077Z,5.47
2023-04-24T00:41:10.449Z,6.13
2023-04-24T00:43:55.804Z,5.28
2023-04-24T00:46:41.609Z,4.45
2023-04-24T00:49:27.120Z,5.30
2023-04-24T00:52:13.520Z,5.60
2023-04-24T00:54:58.776Z,6.40
2023-04-24T00:57:45.047Z,5.82
2023-04-24T01:00:31.090Z,5.68
2023-04-24T01:03:16.689Z,5.18
2023-04-24T01:06:02.469Z,4.32
2023-04-24T01:08:48.971Z,5.72
2023-04-24T01:11:34.393Z,5.30
2023-04-24T01:14:19.574Z,6.45
2023-04-24T01:17:05.086Z,5.72
2023-04-24T01:19:50.565Z,5.55
2023-04-24T01:22:35.934Z,5.45
2023-04-24T01:25:21.560Z,6.05
2023-04-24T01:28:06.666Z,5.15
2023-04-24T01:30:52.092Z,5.13
2023-04-24T01:33:37.285Z,5.22
2023-04-24T01:36:23.784Z,5.40
2023-04-24T01:39:10.865Z,4.93
2023-04-24T01:41:57.275Z,4.53
2023-04-24T01:44:43.065Z,5.20
2023-04-24T01:47:29.322Z,5.20
2023-04-24T01:50:14.452Z,5.40
2023-04-24T01:52:59.786Z,4.93
2023-04-24T01:55:44.974Z,5.30
2023-04-24T01:58:30.403Z,5.10
2023-04-24T02:01:22.190Z,5.18
2023-04-24T02:04:09.070Z,5.72
2023-04-24T02:06:54.514Z,4.47
2023-04-24T02:09:39.813Z,4.75
2023-04-24T02:12:25.276Z,4.70
2023-04-24T02:15:11.201Z,4.75
2023-04-24T02:17:56.651Z,5.43
2023-04-24T02:20:41.982Z,5.00
2023-04-24T02:23:28.716Z,4.85
2023-04-24T02:26:14.124Z,4.57
2023-04-24T02:28:59.345Z,5.13
2023-04-24T02:31:44.748Z,4.75
2023-04-24T02:34:30.068Z,4.88
2023-04-24T02:37:15.406Z,4.65
2023-04-24T02:40:00.643Z,5.00
2023-04-24T02:42:46.139Z,5.03
2023-04-24T02:45:31.484Z,4.45
2023-04-24T02:48:16.714Z,4.88
2023-04-24T02:51:02.021Z,4.50
2023-04-24T02:53:47.200Z,5.15
2023-04-24T02:56:32.557Z,4.80
2023-04-24T02:59:17.910Z,4.97
2023-04-24T03:02:03.205Z,4.13
2023-04-24T03:04:51.428Z,5.93
2023-04-24T03:07:36.584Z,4.68
2023-04-24T03:10:23.812Z,4.60
2023-04-24T03:13:09.381Z,5.55
2023-04-24T03:15:55.212Z,5.20
2023-04-24T03:18:40.465Z,5.32
2023-04-24T03:21:25.951Z,4.93
2023-04-24T03:24:11.244Z,4.57
2023-04-24T03:26:57.916Z,5.55
2023-04-24T03:29:43.615Z,5.18
2023-04-24T03:32:29.334Z,5.00
2023-04-24T03:35:14.991Z,4.88
2023-04-24T03:38:00.266Z,5.00
2023-04-24T03:40:45.752Z,4.85
2023-04-24T03:43:30.870Z,5.15
2023-04-24T03:46:16.456Z,5.03
2023-04-24T03:49:01.795Z,4.32
2023-04-24T03:51:47.082Z,4.55
2023-04-24T03:54:32.535Z,5.22
2023-04-24T03:57:17.809Z,5.15
2023-04-24T04:00:05.227Z,4.80
2023-04-24T04:02:50.641Z,5.32
2023-04-24T04:05:35.872Z,5.70
2023-04-24T04:08:21.311Z,5.28
2023-04-24T04:11:06.585Z,5.25
2023-04-24T04:13:52.105Z,5.80
2023-04-24T04:16:37.784Z,5.55
2023-04-24T04:19:22.880Z,5.22
2023-04-24T04:22:09.130Z,4.85
2023-04-24T04:24:54.045Z,4.60
2023-04-24T04:27:39.920Z,5.55
2023-04-24T04:30:25.193Z,4.18
2023-04-24T04:33:11.816Z,4.15
2023-04-24T04:35:57.864Z,5.18
2023-04-24T04:38:44.125Z,5.22
2023-04-24T04:41:29.199Z,5.55
2023-04-24T04:44:15.110Z,4.65
2023-04-24T04:47:01.411Z,4.93
2023-04-24T04:49:46.926Z,4.82
2023-04-24T04:52:32.454Z,4.50
2023-04-24T04:55:17.745Z,5.55
2023-04-24T04:58:03.838Z,6.00
2023-04-24T05:00:49.618Z,5.75
2023-04-24T05:03:35.052Z,5.95
2023-04-24T05:06:21.604Z,6.05
2023-04-24T05:09:08.572Z,16.67
2023-04-24T05:11:54.459Z,9.68
2023-04-24T05:14:39.662Z,7.20
2023-04-24T05:17:25.085Z,6.45
2023-04-24T05:20:10.862Z,7.85
2023-04-24T05:22:56.445Z,7.85
2023-04-24T05:25:42.449Z,8.73
2023-04-24T05:28:29.574Z,7.03
2023-04-24T05:31:14.997Z,7.00
2023-04-24T05:34:00.455Z,6.82
2023-04-24T05:36:45.677Z,7.45
2023-04-24T05:39:30.905Z,7.20
2023-04-24T05:42:16.350Z,7.53
2023-04-24T05:45:01.745Z,7.97
2023-04-24T05:47:46.822Z,7.43
2023-04-24T05:50:32.511Z,7.55
2023-04-24T05:53:18.907Z,7.32
2023-04-24T05:56:04.180Z,7.57
2023-04-24T05:58:49.362Z,7.70
2023-04-24T06:01:34.823Z,7.13
2023-04-24T06:04:20.638Z,6.18
2023-04-24T06:07:06.339Z,7.53
2023-04-24T06:09:51.575Z,6.55
2023-04-24T06:12:37.609Z,7.70
2023-04-24T06:15:22.980Z,6.70
2023-04-24T06:18:08.764Z,6.03
2023-04-24T06:20:54.191Z,5.53
2023-04-24T06:23:39.414Z,6.55
2023-04-24T06:26:26.177Z,5.60
2023-04-24T06:29:11.710Z,7.10
2023-04-24T06:31:56.996Z,5.18
2023-04-24T06:34:43.324Z,6.07
2023-04-24T06:37:28.759Z,5.47
2023-04-24T06:40:14.298Z,5.20
2023-04-24T06:43:01.099Z,5.10
2023-04-24T06:45:46.375Z,5.22
2023-04-24T06:48:31.847Z,5.05
2023-04-24T06:51:18.643Z,5.65
2023-04-24T06:54:04.046Z,5.22
2023-04-24T06:56:50.810Z,5.57
2023-04-24T06:59:35.684Z,5.82
2023-04-24T07:02:21.386Z,5.50
2023-04-24T07:05:07.902Z,5.90
2023-04-24T07:07:53.694Z,5.70
2023-04-24T07:10:38.752Z,5.72
2023-04-24T07:13:24.665Z,5.38
2023-04-24T07:16:10.708Z,6.13
2023-04-24T07:18:55.834Z,5.88
2023-04-24T07:21:41.401Z,5.57
2023-04-24T07:24:27.023Z,4.70
2023-04-24T07:27:12.955Z,5.93
2023-04-24T07:29:58.353Z,6.22
2023-04-24T07:32:43.741Z,5.30
2023-04-24T07:35:28.907Z,5.85
2023-04-24T07:38:14.150Z,5.53
2023-04-24T07:40:59.573Z,5.90
2023-04-24T07:43:45.426Z,6.13
2023-04-24T07:46:31.617Z,5.93
2023-04-24T07:49:18.484Z,5.43
2023-04-24T07:52:05.182Z,4.90
2023-04-24T07:54:51.225Z,6.78
2023-04-24T07:57:37.317Z,5.47
2023-04-24T08:00:22.563Z,5.90
2023-04-24T08:03:08.086Z,5.30
2023-04-24T08:05:53.800Z,5.80
2023-04-24T08:08:39.384Z,5.63
2023-04-24T08:11:25.293Z,4.78
2023-04-24T08:14:10.733Z,6.38
2023-04-24T08:17:01.388Z,6.05
2023-04-24T08:19:49.280Z,5.80
2023-04-24T08:22:34.766Z,5.65
2023-04-24T08:25:20.267Z,5.55
2023-04-24T08:28:07.486Z,6.15
2023-04-24T08:30:55.984Z,5.57
2023-04-24T08:33:42.038Z,5.70
2023-04-24T08:36:36.041Z,5.30
2023-04-24T08:39:25.071Z,5.47
2023-04-24T08:42:12.252Z,6.13
2023-04-24T08:44:58.960Z,5.20
2023-04-24T08:47:45.221Z,6.15
2023-04-24T08:50:30.923Z,5.20
2023-04-24T08:53:16.859Z,5.00
2023-04-24T08:56:03.280Z,5.32
2023-04-24T08:58:49.191Z,4.47
2023-04-24T09:01:36.134Z,5.20
2023-04-24T09:04:23.274Z,5.60
2023-04-24T09:07:10.610Z,5.18
2023-04-24T09:09:56.082Z,4.97
2023-04-24T09:12:42.425Z,5.65
2023-04-24T09:15:27.735Z,4.88
2023-04-24T09:18:12.984Z,6.60
2023-04-24T09:21:04.061Z,6.72
2023-04-24T09:23:58.843Z,5.75
2023-04-24T09:26:44.299Z,4.95
2023-04-24T09:29:29.991Z,4.90
2023-04-24T09:32:23.580Z,4.72
2023-04-24T09:35:14.462Z,4.57
2023-04-24T09:37:59.502Z,4.45
2023-04-24T09:40:44.856Z,5.18
2023-04-24T09:43:30.917Z,4.65
2023-04-24T09:46:19.427Z,4.95
2023-04-24T09:52:10.880Z,4.25
2023-04-24T09:54:56.242Z,4.95
2023-04-24T09:57:55.859Z,5.22
2023-04-24T10:00:41.347Z,4.85
2023-04-24T10:03:28.114Z,4.18
2023-04-24T10:06:14.014Z,5.07
2023-04-24T10:08:59.975Z,4.70
2023-04-24T10:11:47.000Z,5.00
2023-04-24T10:14:32.486Z,4.70
2023-04-24T10:17:18.384Z,5.28
2023-04-24T10:20:03.679Z,5.22
2023-04-24T10:22:51.296Z,5.57
2023-04-24T10:25:40.477Z,4.65
2023-04-24T10:28:26.015Z,4.95
2023-04-24T10:31:12.723Z,5.15
2023-04-24T10:33:59.570Z,5.25
2023-04-24T10:36:49.209Z,5.22
2023-04-24T10:39:34.646Z,5.13
2023-04-24T10:42:20.691Z,4.85
2023-04-24T10:45:07.002Z,5.32
2023-04-24T10:48:00.364Z,5.20
2023-04-24T10:50:53.680Z,5.93
2023-04-24T10:53:39.160Z,5.22
2023-04-24T10:56:24.508Z,5.95
2023-04-24T10:59:10.834Z,5.00
2023-04-24T11:01:56.572Z,4.75
2023-04-24T11:04:43.931Z,5.90
2023-04-24T11:07:29.358Z,5.32
2023-04-24T11:10:27.450Z,6.32
2023-04-24T11:13:15.859Z,4.60
2023-04-24T11:16:39.739Z,5.65
2023-04-24T11:19:27.199Z,5.38
2023-04-24T11:22:18.054Z,5.65
2023-04-24T11:25:05.325Z,5.57
2023-04-24T11:27:51.529Z,4.50
2023-04-24T11:30:41.092Z,4.97
2023-04-24T11:33:26.591Z,5.82
2023-04-24T11:36:12.079Z,5.85
2023-04-24T11:38:58.437Z,5.32
2023-04-24T11:41:43.860Z,5.30
2023-04-24T11:44:29.501Z,6.53
2023-04-24T11:47:14.802Z,5.30
2023-04-24T11:50:01.940Z,6.07
2023-04-24T11:52:49.860Z,5.68
2023-04-24T11:55:34.999Z,5.20
2023-04-24T11:58:22.787Z,5.05
2023-04-24T12:01:08.097Z,5.20
2023-04-24T12:04:01.065Z,4.80
2023-04-24T12:07:03.487Z,4.85
2023-04-24T12:09:52.622Z,5.03
2023-04-24T12:12:38.296Z,4.63
2023-04-24T12:15:24.432Z,4.93
2023-04-24T12:18:14.005Z,4.90
2023-04-24T12:21:19.151Z,4.78
2023-04-24T12:24:07.672Z,4.68
2023-04-24T12:26:54.546Z,4.35
2023-04-24T12:29:58.750Z,4.88
2023-04-24T12:32:49.083Z,5.22
2023-04-24T12:35:35.158Z,4.70
2023-04-24T12:38:25.435Z,5.18
2023-04-24T12:41:12.454Z,5.63
2023-04-24T12:43:57.576Z,5.05
2023-04-24T12:46:42.810Z,4.88
2023-04-24T12:49:29.180Z,6.32
2023-04-24T12:52:14.447Z,5.22
2023-04-24T12:55:01.617Z,4.80
2023-04-24T12:57:46.667Z,4.63
2023-04-24T13:00:32.166Z,4.55
2023-04-24T13:03:17.506Z,4.88
2023-04-24T13:06:02.894Z,5.35
2023-04-24T13:08:49.516Z,5.47
2023-04-24T13:11:34.419Z,5.60
2023-04-24T13:14:19.734Z,5.38
2023-04-24T13:17:05.986Z,4.85
2023-04-24T13:19:52.670Z,4.68
2023-04-24T13:22:38.477Z,5.40
2023-04-24T13:25:26.025Z,5.10
2023-04-24T13:28:11.232Z,5.53
2023-04-24T13:30:56.583Z,5.70
2023-04-24T13:33:42.416Z,5.68
2023-04-24T13:36:27.899Z,5.88
2023-04-24T13:39:13.670Z,5.50
2023-04-24T13:41:59.331Z,6.40
2023-04-24T13:44:44.511Z,5.85
2023-04-24T13:47:29.985Z,5.93
2023-04-24T13:50:16.090Z,5.05
2023-04-24T13:53:02.961Z,5.45
2023-04-24T13:55:48.748Z,6.10
2023-04-24T13:58:33.747Z,5.07
2023-04-24T14:01:19.310Z,5.53
2023-04-24T14:04:05.014Z,5.85
2023-04-24T14:06:50.467Z,5.55
2023-04-24T14:09:35.841Z,5.57
2023-04-24T14:12:22.083Z,6.35
2023-04-24T14:15:07.854Z,5.40
2023-04-24T14:17:52.892Z,5.65
2023-04-24T14:20:38.188Z,5.57
2023-04-24T14:23:23.622Z,5.72
2023-04-24T14:26:08.923Z,7.03
2023-04-24T14:29:01.049Z,5.78
2023-04-24T14:31:56.845Z,6.38
2023-04-24T14:34:42.670Z,5.60
2023-04-24T14:37:28.029Z,7.43
2023-04-24T14:40:29.770Z,6.88
2023-04-24T14:43:18.535Z,7.68
2023-04-24T14:46:05.781Z,7.25
2023-04-24T14:48:50.887Z,8.13
2023-04-24T14:51:39.319Z,12.95
2023-04-24T14:54:24.755Z,11.20
2023-04-24T14:57:10.029Z,7.57
2023-04-24T14:59:55.208Z,7.88
2023-04-24T15:02:43.293Z,8.45
2023-04-24T15:05:28.866Z,8.32
2023-04-24T15:08:15.006Z,8.15
2023-04-24T15:11:00.125Z,7.18
2023-04-24T15:13:48.229Z,7.18
2023-04-24T15:16:33.763Z,7.40
2023-04-24T15:19:18.686Z,6.70
2023-04-24T15:22:04.026Z,7.82
2023-04-24T15:24:49.543Z,7.30
2023-04-24T15:27:46.878Z,7.93
2023-04-24T15:30:32.392Z,8.88
2023-04-24T15:33:17.568Z,18.80
2023-04-24T15:36:02.692Z,40.72
2023-04-24T15:38:48.791Z,17.88
2023-04-24T15:41:33.887Z,15.43
2023-04-24T15:44:19.493Z,15.55
2023-04-24T15:47:04.998Z,17.67
2023-04-24T15:49:50.335Z,15.07
2023-04-24T15:52:36.056Z,8.57
2023-04-24T15:55:21.526Z,8.35
2023-04-24T15:58:06.538Z,9.23
2023-04-24T16:00:51.765Z,14.23
2023-04-24T16:03:37.136Z,16.83
2023-04-24T16:06:22.677Z,13.60
2023-04-24T16:09:08.765Z,10.70
2023-04-24T16:11:54.003Z,15.18
2023-04-24T16:14:39.709Z,12.60
2023-04-24T16:17:25.006Z,8.82
2023-04-24T16:20:10.903Z,9.30
2023-04-24T16:22:56.138Z,7.72
2023-04-24T16:25:41.192Z,10.60
2023-04-24T16:28:27.789Z,16.38
2023-04-24T16:31:12.867Z,7.38
2023-04-24T16:33:57.873Z,5.70
2023-04-24T16:36:43.389Z,5.93
2023-04-24T16:39:28.531Z,5.75
2023-04-24T16:42:14.816Z,5.88
2023-04-24T16:44:59.823Z,6.60
2023-04-24T16:47:45.171Z,7.30
2023-04-24T16:50:30.027Z,6.78
2023-04-24T16:53:15.489Z,7.68
2023-04-24T16:56:00.726Z,6.30
2023-04-24T16:58:46.025Z,7.28
2023-04-24T17:01:31.195Z,15.25
2023-04-24T17:04:16.559Z,8.77
2023-04-24T17:07:02.088Z,9.90
2023-04-24T17:09:47.549Z,16.75
2023-04-24T17:12:32.888Z,13.15
2023-04-24T17:15:18.009Z,7.57
2023-04-24T17:18:03.520Z,5.63
2023-04-24T17:20:48.858Z,5.18
2023-04-24T17:23:34.190Z,5.05
2023-04-24T17:26:19.459Z,6.55
2023-04-24T17:29:04.752Z,9.93
2023-04-24T17:31:49.860Z,9.02
2023-04-24T17:34:35.225Z,6.53
2023-04-24T17:37:23.202Z,4.55
2023-04-24T17:40:09.063Z,3.90
2023-04-24T17:42:54.700Z,5.47
2023-04-24T17:45:39.679Z,10.43
2023-04-24T17:48:25.287Z,7.53
2023-04-24T17:51:10.609Z,12.07
2023-04-24T17:53:55.556Z,13.00
2023-04-24T17:56:41.197Z,10.60
2023-04-24T17:59:26.751Z,8.55
2023-04-24T18:02:12.184Z,10.48
2023-04-24T18:04:57.764Z,11.45
2023-04-24T18:07:43.100Z,10.35
2023-04-24T18:10:31.616Z,11.10
2023-04-24T18:13:16.909Z,10.27
2023-04-24T18:16:02.237Z,8.60
2023-04-24T18:18:47.501Z,7.32
2023-04-24T18:21:33.137Z,6.13
2023-04-24T18:24:19.041Z,5.35
2023-04-24T18:27:04.254Z,6.28
2023-04-24T18:29:49.604Z,4.85
2023-04-24T18:32:35.995Z,4.88
2023-04-24T18:35:22.089Z,5.25
2023-04-24T18:38:07.491Z,4.60
2023-04-24T18:40:52.461Z,5.22
2023-04-24T18:43:37.820Z,4.38
2023-04-24T18:46:23.059Z,4.95
2023-04-24T18:49:08.450Z,4.90
2023-04-24T18:51:54.769Z,4.82
2023-04-24T18:54:41.121Z,4.72
2023-04-24T18:57:26.815Z,3.95
2023-04-24T19:00:12.422Z,4.32
2023-04-24T19:02:57.652Z,5.35
2023-04-24T19:05:42.775Z,5.18
2023-04-24T19:08:27.753Z,4.80
2023-04-24T19:11:13.337Z,4.97
2023-04-24T19:14:04.145Z,4.65
2023-04-24T19:16:50.097Z,20.80
2023-04-24T19:19:36.189Z,7.55
2023-04-24T19:22:21.638Z,5.45
2023-04-24T19:25:07.438Z,5.07
2023-04-24T19:27:52.642Z,5.00
2023-04-24T19:30:38.528Z,4.55
2023-04-24T19:33:23.641Z,4.35
2023-04-24T19:36:09.270Z,4.47
2023-04-24T19:38:55.169Z,4.80
2023-04-24T19:41:40.263Z,3.92
2023-04-24T19:44:25.697Z,4.05
2023-04-24T19:47:10.875Z,3.90
2023-04-24T19:49:56.687Z,4.50
2023-04-24T19:52:41.840Z,4.10
2023-04-24T19:55:26.977Z,4.55
2023-04-24T19:58:12.098Z,3.70
2023-04-24T20:00:58.216Z,3.92
2023-04-24T20:03:43.703Z,4.03
2023-04-24T20:06:29.094Z,3.70
2023-04-24T20:09:14.644Z,3.58
2023-04-24T20:12:00.164Z,3.85
2023-04-24T20:14:45.088Z,4.35
2023-04-24T20:17:30.873Z,3.53
2023-04-24T20:20:15.914Z,3.60
2023-04-24T20:23:01.281Z,3.60
2023-04-24T20:25:46.567Z,3.83
2023-04-24T20:28:31.985Z,4.35
2023-04-24T20:31:17.706Z,4.03
2023-04-24T20:34:03.526Z,3.60
2023-04-24T20:36:49.756Z,3.47
2023-04-24T20:39:34.971Z,3.92
2023-04-24T20:42:20.609Z,3.25
2023-04-24T20:45:06.641Z,3.95
2023-04-24T20:47:52.046Z,3.85
2023-04-24T20:50:41.891Z,4.10
2023-04-24T20:53:27.103Z,4.28
2023-04-24T20:56:12.445Z,3.45
2023-04-24T20:58:57.838Z,4.57
2023-04-24T21:01:44.858Z,4.63
2023-04-24T21:04:32.254Z,4.22
2023-04-24T21:07:17.835Z,4.50
2023-04-24T21:10:03.013Z,4.35
2023-04-24T21:12:48.492Z,4.20
2023-04-24T21:15:33.756Z,3.92
2023-04-24T21:18:19.034Z,3.75
2023-04-24T21:21:04.516Z,3.63
2023-04-24T21:23:49.919Z,4.32
2023-04-24T21:26:35.663Z,3.47
2023-04-24T21:29:21.206Z,4.68
2023-04-24T21:32:06.437Z,4.97
2023-04-24T21:34:51.663Z,5.60
2023-04-24T21:37:39.207Z,4.97
2023-04-24T21:40:24.905Z,5.60
2023-04-24T21:43:10.146Z,4.65
2023-04-24T21:45:56.719Z,4.40
2023-04-24T21:48:42.268Z,4.38
2023-04-24T21:51:28.442Z,4.13
2023-04-24T21:54:14.199Z,4.72
2023-04-24T21:56:59.629Z,4.50
2023-04-24T21:59:45.769Z,4.70
2023-04-24T22:03:27.468Z,4.45
2023-04-24T22:06:12.649Z,3.95
2023-04-24T22:08:57.808Z,3.97
2023-04-24T22:11:43.014Z,4.90
2023-04-24T22:14:28.372Z,4.07
2023-04-24T22:17:15.373Z,4.82
2023-04-24T22:20:01.559Z,4.70
2023-04-24T22:22:47.398Z,4.72
2023-04-24T22:25:32.766Z,4.80
2023-04-24T22:28:17.877Z,4.30
2023-04-24T22:31:03.548Z,5.13
2023-04-24T22:33:49.516Z,4.13
2023-04-24T22:36:34.884Z,3.72
2023-04-24T22:39:20.150Z,4.25
2023-04-24T22:42:05.656Z,3.95
2023-04-24T22:44:51.463Z,4.60
2023-04-24T22:47:36.832Z,4.05
2023-04-24T22:50:22.675Z,3.70
2023-04-24T22:53:08.039Z,4.40
2023-04-24T22:55:53.372Z,4.90
2023-04-24T22:58:38.670Z,4.47
2023-04-24T23:01:24.726Z,5.60
2023-04-24T23:04:09.894Z,4.90
2023-04-24T23:06:55.255Z,4.40
2023-04-24T23:09:40.699Z,4.50
2023-04-24T23:12:25.929Z,4.40
2023-04-24T23:15:14.642Z,3.65
2023-04-24T23:17:59.669Z,3.85
2023-04-24T23:20:46.084Z,3.83
2023-04-24T23:23:31.481Z,3.83
2023-04-24T23:26:16.783Z,3.97
2023-04-24T23:29:01.969Z,3.88
2023-04-24T23:31:47.303Z,4.50
2023-04-24T23:34:34.006Z,4.10
2023-04-24T23:37:19.162Z,3.90
2023-04-24T23:40:11.677Z,4.43
2023-04-24T23:43:06.200Z,3.75
2023-04-24T23:45:52.191Z,4.60
2023-04-24T23:48:37.504Z,5.30
2023-04-24T23:51:23.062Z,5.50
2023-04-24T23:54:08.050Z,4.47
2023-04-24T23:56:53.290Z,4.47
2023-04-24T23:59:38.664Z,9.77
